sensor_id;sensor_type;location;lat;lon;timestamp;P1;durP1;ratioP1;P2;durP2;ratioP2
14013;SDS011;49110;52.584;13.408;2023-12-14T00:00:52;140.47;;;132.47;;
14013;SDS011;49110;52.584;13.408;2023-12-14T00:01:52;140.40;;;132.30;;
14013;SDS011;49110;52.584;13.408;2023-12-14T00:02:53;139.73;;;131.47;;
14013;SDS011;49110;52.584;13.408;2023-12-14T00:03:53;147.90;;;139.67;;
14013;SDS011;49110;52.584;13.408;2023-12-14T00:04:54;135.33;;;127.43;;
14013;SDS011;49110;52.584;13.408;2023-12-14T00:05:54;145.60;;;137.23;;
14013;SDS011;49110;52.584;13.408;2023-12-14T00:06:55;140.87;;;132.83;;
14013;SDS011;49110;52.584;13.408;2023-12-14T00:07:55;129.90;;;122.47;;
14013;SDS011;49110;52.584;13.408;2023-12-14T00:08:56;137.70;;;129.73;;
14013;SDS011;49110;52.584;13.408;2023-12-14T00:09:56;130.83;;;123.30;;
14013;SDS011;49110;52.584;13.408;2023-12-14T00:10:57;140.15;;;132.30;;
14013;SDS011;49110;52.584;13.408;2023-12-14T00:12:06;122.95;;;115.65;;
14013;SDS011;49110;52.584;13.408;2023-12-14T00:13:07;119.93;;;112.53;;
14013;SDS011;49110;52.584;13.408;2023-12-14T00:14:07;126.13;;;118.87;;
14013;SDS011;49110;52.584;13.408;2023-12-14T00:15:08;130.40;;;122.90;;
14013;SDS011;49110;52.584;13.408;2023-12-14T00:16:08;129.67;;;121.90;;
14013;SDS011;49110;52.584;13.408;2023-12-14T00:17:09;141.50;;;133.13;;
14013;SDS011;49110;52.584;13.408;2023-12-14T00:18:09;142.10;;;133.97;;
14013;SDS011;49110;52.584;13.408;2023-12-14T00:19:10;139.33;;;131.30;;
14013;SDS011;49110;52.584;13.408;2023-12-14T00:20:10;141.87;;;133.50;;
14013;SDS011;49110;52.584;13.408;2023-12-14T00:21:11;137.43;;;129.47;;
14013;SDS011;49110;52.584;13.408;2023-12-14T00:22:11;140.57;;;132.40;;
14013;SDS011;49110;52.584;13.408;2023-12-14T00:23:12;138.00;;;130.43;;
14013;SDS011;49110;52.584;13.408;2023-12-14T00:24:13;142.07;;;133.88;;
14013;SDS011;49110;52.584;13.408;2023-12-14T00:25:14;138.20;;;130.30;;
14013;SDS011;49110;52.584;13.408;2023-12-14T00:26:14;131.00;;;123.53;;
14013;SDS011;49110;52.584;13.408;2023-12-14T00:27:15;136.97;;;129.00;;
14013;SDS011;49110;52.584;13.408;2023-12-14T00:28:15;151.10;;;142.63;;
14013;SDS011;49110;52.584;13.408;2023-12-14T00:29:16;141.70;;;133.47;;
14013;SDS011;49110;52.584;13.408;2023-12-14T00:30:16;143.17;;;134.90;;
14013;SDS011;49110;52.584;13.408;2023-12-14T00:31:17;148.80;;;139.97;;
14013;SDS011;49110;52.584;13.408;2023-12-14T00:32:17;143.77;;;135.50;;
14013;SDS011;49110;52.584;13.408;2023-12-14T00:33:18;144.53;;;135.93;;
14013;SDS011;49110;52.584;13.408;2023-12-14T00:34:18;149.30;;;140.53;;
14013;SDS011;49110;52.584;13.408;2023-12-14T00:35:19;163.40;;;153.80;;
14013;SDS011;49110;52.584;13.408;2023-12-14T00:36:19;144.97;;;136.23;;
14013;SDS011;49110;52.584;13.408;2023-12-14T00:37:20;150.80;;;142.10;;
14013;SDS011;49110;52.584;13.408;2023-12-14T00:38:20;143.07;;;134.63;;
14013;SDS011;49110;52.584;13.408;2023-12-14T00:39:21;145.53;;;136.80;;
14013;SDS011;49110;52.584;13.408;2023-12-14T00:40:21;147.93;;;139.80;;
14013;SDS011;49110;52.584;13.408;2023-12-14T00:41:22;144.70;;;136.47;;
14013;SDS011;49110;52.584;13.408;2023-12-14T00:42:22;140.17;;;132.03;;
14013;SDS011;49110;52.584;13.408;2023-12-14T00:43:23;135.80;;;127.87;;
14013;SDS011;49110;52.584;13.408;2023-12-14T00:44:23;143.17;;;135.07;;
14013;SDS011;49110;52.584;13.408;2023-12-14T00:45:24;139.07;;;131.07;;
14013;SDS011;49110;52.584;13.408;2023-12-14T00:46:24;142.17;;;134.23;;
14013;SDS011;49110;52.584;13.408;2023-12-14T00:47:25;134.33;;;127.00;;
14013;SDS011;49110;52.584;13.408;2023-12-14T00:48:25;146.73;;;138.67;;
14013;SDS011;49110;52.584;13.408;2023-12-14T00:49:26;129.40;;;122.33;;
14013;SDS011;49110;52.584;13.408;2023-12-14T00:50:28;116.25;;;109.68;;
14013;SDS011;49110;52.584;13.408;2023-12-14T00:51:28;121.37;;;114.30;;
14013;SDS011;49110;52.584;13.408;2023-12-14T00:52:29;120.90;;;113.80;;
14013;SDS011;49110;52.584;13.408;2023-12-14T00:53:29;112.87;;;106.23;;
14013;SDS011;49110;52.584;13.408;2023-12-14T00:54:30;123.27;;;116.27;;
14013;SDS011;49110;52.584;13.408;2023-12-14T00:55:30;123.40;;;116.43;;
14013;SDS011;49110;52.584;13.408;2023-12-14T00:56:31;125.93;;;118.77;;
14013;SDS011;49110;52.584;13.408;2023-12-14T00:57:31;124.33;;;117.20;;
14013;SDS011;49110;52.584;13.408;2023-12-14T00:58:32;128.27;;;120.97;;
14013;SDS011;49110;52.584;13.408;2023-12-14T00:59:32;136.73;;;128.83;;
14013;SDS011;49110;52.584;13.408;2023-12-14T01:00:33;133.70;;;126.23;;
14013;SDS011;49110;52.584;13.408;2023-12-14T01:01:33;134.20;;;126.40;;
14013;SDS011;49110;52.584;13.408;2023-12-14T01:02:34;133.47;;;125.67;;
14013;SDS011;49110;52.584;13.408;2023-12-14T01:03:35;140.07;;;131.93;;
14013;SDS011;49110;52.584;13.408;2023-12-14T01:04:35;129.53;;;122.37;;
14013;SDS011;49110;52.584;13.408;2023-12-14T01:05:35;128.57;;;121.70;;
14013;SDS011;49110;52.584;13.408;2023-12-14T01:06:36;118.20;;;111.70;;
14013;SDS011;49110;52.584;13.408;2023-12-14T01:07:36;116.23;;;109.83;;
14013;SDS011;49110;52.584;13.408;2023-12-14T01:08:37;108.27;;;101.93;;
14013;SDS011;49110;52.584;13.408;2023-12-14T01:09:37;113.47;;;107.27;;
14013;SDS011;49110;52.584;13.408;2023-12-14T01:10:38;113.73;;;107.37;;
14013;SDS011;49110;52.584;13.408;2023-12-14T01:11:39;121.23;;;114.60;;
14013;SDS011;49110;52.584;13.408;2023-12-14T01:12:39;114.60;;;108.13;;
14013;SDS011;49110;52.584;13.408;2023-12-14T01:13:39;119.23;;;112.80;;
14013;SDS011;49110;52.584;13.408;2023-12-14T01:14:40;121.23;;;114.60;;
14013;SDS011;49110;52.584;13.408;2023-12-14T01:15:40;122.33;;;115.67;;
14013;SDS011;49110;52.584;13.408;2023-12-14T01:16:41;121.00;;;114.40;;
14013;SDS011;49110;52.584;13.408;2023-12-14T01:17:41;120.60;;;113.83;;
14013;SDS011;49110;52.584;13.408;2023-12-14T01:18:42;127.87;;;120.87;;
14013;SDS011;49110;52.584;13.408;2023-12-14T01:19:42;129.30;;;122.03;;
14013;SDS011;49110;52.584;13.408;2023-12-14T01:20:43;121.70;;;115.20;;
14013;SDS011;49110;52.584;13.408;2023-12-14T01:21:43;121.43;;;114.60;;
14013;SDS011;49110;52.584;13.408;2023-12-14T01:22:44;120.67;;;114.07;;
14013;SDS011;49110;52.584;13.408;2023-12-14T01:23:44;121.10;;;114.43;;
14013;SDS011;49110;52.584;13.408;2023-12-14T01:24:45;119.83;;;113.27;;
14013;SDS011;49110;52.584;13.408;2023-12-14T01:25:45;117.67;;;111.23;;
14013;SDS011;49110;52.584;13.408;2023-12-14T01:26:46;122.53;;;116.07;;
14013;SDS011;49110;52.584;13.408;2023-12-14T01:27:46;120.60;;;113.90;;
14013;SDS011;49110;52.584;13.408;2023-12-14T01:28:46;117.20;;;110.80;;
14013;SDS011;49110;52.584;13.408;2023-12-14T01:29:47;114.85;;;108.53;;
14013;SDS011;49110;52.584;13.408;2023-12-14T01:30:48;117.37;;;111.10;;
14013;SDS011;49110;52.584;13.408;2023-12-14T01:31:49;111.73;;;105.60;;
14013;SDS011;49110;52.584;13.408;2023-12-14T01:32:49;113.53;;;107.43;;
14013;SDS011;49110;52.584;13.408;2023-12-14T01:33:50;111.13;;;105.07;;
14013;SDS011;49110;52.584;13.408;2023-12-14T01:34:51;106.25;;;100.55;;
14013;SDS011;49110;52.584;13.408;2023-12-14T01:35:52;111.30;;;105.33;;
14013;SDS011;49110;52.584;13.408;2023-12-14T01:36:52;108.67;;;102.63;;
14013;SDS011;49110;52.584;13.408;2023-12-14T01:37:53;113.97;;;107.82;;
14013;SDS011;49110;52.584;13.408;2023-12-14T01:38:53;115.53;;;109.43;;
14013;SDS011;49110;52.584;13.408;2023-12-14T01:39:54;112.57;;;106.57;;
14013;SDS011;49110;52.584;13.408;2023-12-14T01:40:54;116.60;;;110.40;;
14013;SDS011;49110;52.584;13.408;2023-12-14T01:41:56;121.45;;;115.00;;
14013;SDS011;49110;52.584;13.408;2023-12-14T01:43:05;124.87;;;118.20;;
14013;SDS011;49110;52.584;13.408;2023-12-14T01:44:07;107.25;;;101.32;;
14013;SDS011;49110;52.584;13.408;2023-12-14T01:45:08;116.53;;;110.23;;
14013;SDS011;49110;52.584;13.408;2023-12-14T01:46:09;125.33;;;118.70;;
14013;SDS011;49110;52.584;13.408;2023-12-14T01:47:10;126.87;;;120.03;;
14013;SDS011;49110;52.584;13.408;2023-12-14T01:48:10;128.83;;;121.80;;
14013;SDS011;49110;52.584;13.408;2023-12-14T01:49:11;133.23;;;126.10;;
14013;SDS011;49110;52.584;13.408;2023-12-14T01:50:11;127.80;;;120.63;;
14013;SDS011;49110;52.584;13.408;2023-12-14T01:51:12;129.83;;;122.70;;
14013;SDS011;49110;52.584;13.408;2023-12-14T01:52:12;129.40;;;122.37;;
14013;SDS011;49110;52.584;13.408;2023-12-14T01:53:13;131.67;;;124.67;;
14013;SDS011;49110;52.584;13.408;2023-12-14T01:54:13;127.07;;;119.63;;
14013;SDS011;49110;52.584;13.408;2023-12-14T01:55:14;119.47;;;113.13;;
14013;SDS011;49110;52.584;13.408;2023-12-14T01:56:14;111.17;;;104.93;;
14013;SDS011;49110;52.584;13.408;2023-12-14T01:57:15;117.37;;;110.97;;
14013;SDS011;49110;52.584;13.408;2023-12-14T01:58:15;116.83;;;110.27;;
14013;SDS011;49110;52.584;13.408;2023-12-14T01:59:16;119.90;;;113.30;;
14013;SDS011;49110;52.584;13.408;2023-12-14T02:00:20;107.17;;;101.03;;
14013;SDS011;49110;52.584;13.408;2023-12-14T02:01:36;107.70;;;101.63;;
14013;SDS011;49110;52.584;13.408;2023-12-14T02:02:41;108.22;;;102.07;;
14013;SDS011;49110;52.584;13.408;2023-12-14T02:04:00;108.50;;;102.53;;
14013;SDS011;49110;52.584;13.408;2023-12-14T02:05:01;104.55;;;98.63;;
14013;SDS011;49110;52.584;13.408;2023-12-14T02:06:02;110.75;;;104.55;;
14013;SDS011;49110;52.584;13.408;2023-12-14T02:07:03;119.07;;;112.40;;
14013;SDS011;49110;52.584;13.408;2023-12-14T02:08:03;120.30;;;113.37;;
14013;SDS011;49110;52.584;13.408;2023-12-14T02:09:04;119.37;;;112.87;;
14013;SDS011;49110;52.584;13.408;2023-12-14T02:10:05;115.50;;;109.17;;
14013;SDS011;49110;52.584;13.408;2023-12-14T02:11:06;129.88;;;122.70;;
14013;SDS011;49110;52.584;13.408;2023-12-14T02:12:06;122.53;;;116.03;;
14013;SDS011;49110;52.584;13.408;2023-12-14T02:13:07;118.37;;;112.00;;
14013;SDS011;49110;52.584;13.408;2023-12-14T02:14:10;116.17;;;109.77;;
14013;SDS011;49110;52.584;13.408;2023-12-14T02:15:11;112.57;;;106.25;;
14013;SDS011;49110;52.584;13.408;2023-12-14T02:16:12;110.77;;;104.77;;
14013;SDS011;49110;52.584;13.408;2023-12-14T02:17:12;122.83;;;116.27;;
14013;SDS011;49110;52.584;13.408;2023-12-14T02:18:13;127.23;;;120.23;;
14013;SDS011;49110;52.584;13.408;2023-12-14T02:19:13;121.47;;;114.93;;
14013;SDS011;49110;52.584;13.408;2023-12-14T02:20:14;119.23;;;112.77;;
14013;SDS011;49110;52.584;13.408;2023-12-14T02:21:14;113.60;;;107.53;;
14013;SDS011;49110;52.584;13.408;2023-12-14T02:22:16;107.10;;;101.23;;
14013;SDS011;49110;52.584;13.408;2023-12-14T02:23:17;111.95;;;105.85;;
14013;SDS011;49110;52.584;13.408;2023-12-14T02:24:18;119.17;;;112.77;;
14013;SDS011;49110;52.584;13.408;2023-12-14T02:25:18;116.70;;;110.50;;
14013;SDS011;49110;52.584;13.408;2023-12-14T02:26:19;120.53;;;114.17;;
14013;SDS011;49110;52.584;13.408;2023-12-14T02:27:20;113.63;;;107.53;;
14013;SDS011;49110;52.584;13.408;2023-12-14T02:28:20;108.20;;;102.43;;
14013;SDS011;49110;52.584;13.408;2023-12-14T02:29:21;115.30;;;109.07;;
14013;SDS011;49110;52.584;13.408;2023-12-14T02:30:21;112.87;;;106.60;;
14013;SDS011;49110;52.584;13.408;2023-12-14T02:31:22;119.03;;;112.53;;
14013;SDS011;49110;52.584;13.408;2023-12-14T02:32:23;116.85;;;110.53;;
14013;SDS011;49110;52.584;13.408;2023-12-14T02:33:23;117.47;;;111.17;;
14013;SDS011;49110;52.584;13.408;2023-12-14T02:34:23;118.87;;;112.50;;
14013;SDS011;49110;52.584;13.408;2023-12-14T02:35:25;126.75;;;120.05;;
14013;SDS011;49110;52.584;13.408;2023-12-14T02:36:25;127.67;;;120.73;;
14013;SDS011;49110;52.584;13.408;2023-12-14T02:37:25;124.70;;;117.83;;
14013;SDS011;49110;52.584;13.408;2023-12-14T02:38:26;134.60;;;127.33;;
14013;SDS011;49110;52.584;13.408;2023-12-14T02:39:26;133.70;;;126.43;;
14013;SDS011;49110;52.584;13.408;2023-12-14T02:40:27;138.13;;;130.50;;
14013;SDS011;49110;52.584;13.408;2023-12-14T02:41:27;130.53;;;123.70;;
14013;SDS011;49110;52.584;13.408;2023-12-14T02:42:28;128.40;;;121.17;;
14013;SDS011;49110;52.584;13.408;2023-12-14T02:43:28;117.10;;;110.47;;
14013;SDS011;49110;52.584;13.408;2023-12-14T02:44:29;126.10;;;119.23;;
14013;SDS011;49110;52.584;13.408;2023-12-14T02:45:29;123.67;;;116.60;;
14013;SDS011;49110;52.584;13.408;2023-12-14T02:46:30;132.53;;;125.27;;
14013;SDS011;49110;52.584;13.408;2023-12-14T02:47:30;124.50;;;117.50;;
14013;SDS011;49110;52.584;13.408;2023-12-14T02:48:31;129.47;;;122.40;;
14013;SDS011;49110;52.584;13.408;2023-12-14T02:49:31;130.17;;;122.83;;
14013;SDS011;49110;52.584;13.408;2023-12-14T02:50:32;118.00;;;111.67;;
14013;SDS011;49110;52.584;13.408;2023-12-14T02:51:33;126.07;;;119.17;;
14013;SDS011;49110;52.584;13.408;2023-12-14T02:52:33;130.97;;;123.77;;
14013;SDS011;49110;52.584;13.408;2023-12-14T02:53:34;142.00;;;134.07;;
14013;SDS011;49110;52.584;13.408;2023-12-14T02:54:34;133.60;;;126.37;;
14013;SDS011;49110;52.584;13.408;2023-12-14T02:55:36;135.93;;;128.45;;
14013;SDS011;49110;52.584;13.408;2023-12-14T02:56:36;143.57;;;135.67;;
14013;SDS011;49110;52.584;13.408;2023-12-14T02:57:37;130.83;;;123.83;;
14013;SDS011;49110;52.584;13.408;2023-12-14T02:58:38;137.00;;;129.70;;
14013;SDS011;49110;52.584;13.408;2023-12-14T02:59:39;142.10;;;134.23;;
14013;SDS011;49110;52.584;13.408;2023-12-14T03:00:39;124.93;;;118.20;;
14013;SDS011;49110;52.584;13.408;2023-12-14T03:01:40;134.57;;;126.97;;
14013;SDS011;49110;52.584;13.408;2023-12-14T03:02:40;120.87;;;114.40;;
14013;SDS011;49110;52.584;13.408;2023-12-14T03:03:41;118.37;;;112.07;;
14013;SDS011;49110;52.584;13.408;2023-12-14T03:04:41;119.10;;;112.60;;
14013;SDS011;49110;52.584;13.408;2023-12-14T03:05:42;108.07;;;102.17;;
14013;SDS011;49110;52.584;13.408;2023-12-14T03:06:42;108.73;;;102.80;;
14013;SDS011;49110;52.584;13.408;2023-12-14T03:07:43;116.82;;;110.57;;
14013;SDS011;49110;52.584;13.408;2023-12-14T03:08:44;110.53;;;104.53;;
14013;SDS011;49110;52.584;13.408;2023-12-14T03:09:44;109.53;;;103.47;;
14013;SDS011;49110;52.584;13.408;2023-12-14T03:10:45;110.63;;;104.63;;
14013;SDS011;49110;52.584;13.408;2023-12-14T03:11:45;108.93;;;102.80;;
14013;SDS011;49110;52.584;13.408;2023-12-14T03:12:46;117.23;;;110.93;;
14013;SDS011;49110;52.584;13.408;2023-12-14T03:13:46;117.17;;;110.80;;
14013;SDS011;49110;52.584;13.408;2023-12-14T03:14:47;111.90;;;105.77;;
14013;SDS011;49110;52.584;13.408;2023-12-14T03:15:47;106.30;;;100.73;;
14013;SDS011;49110;52.584;13.408;2023-12-14T03:16:49;106.15;;;100.28;;
14013;SDS011;49110;52.584;13.408;2023-12-14T03:17:49;98.77;;;93.30;;
14013;SDS011;49110;52.584;13.408;2023-12-14T03:18:50;104.90;;;99.10;;
14013;SDS011;49110;52.584;13.408;2023-12-14T03:19:53;99.80;;;94.28;;
14013;SDS011;49110;52.584;13.408;2023-12-14T03:20:53;106.50;;;100.70;;
14013;SDS011;49110;52.584;13.408;2023-12-14T03:21:54;109.00;;;103.30;;
14013;SDS011;49110;52.584;13.408;2023-12-14T03:22:54;114.23;;;108.13;;
14013;SDS011;49110;52.584;13.408;2023-12-14T03:23:55;112.17;;;106.10;;
14013;SDS011;49110;52.584;13.408;2023-12-14T03:24:55;103.23;;;97.77;;
14013;SDS011;49110;52.584;13.408;2023-12-14T03:25:56;109.63;;;103.73;;
14013;SDS011;49110;52.584;13.408;2023-12-14T03:26:56;107.97;;;102.03;;
14013;SDS011;49110;52.584;13.408;2023-12-14T03:27:57;100.30;;;95.03;;
14013;SDS011;49110;52.584;13.408;2023-12-14T03:28:57;100.53;;;95.20;;
14013;SDS011;49110;52.584;13.408;2023-12-14T03:29:58;91.70;;;86.57;;
14013;SDS011;49110;52.584;13.408;2023-12-14T03:30:58;96.97;;;91.90;;
14013;SDS011;49110;52.584;13.408;2023-12-14T03:31:59;98.97;;;93.70;;
14013;SDS011;49110;52.584;13.408;2023-12-14T03:33:00;107.43;;;101.90;;
14013;SDS011;49110;52.584;13.408;2023-12-14T03:34:01;111.67;;;105.87;;
14013;SDS011;49110;52.584;13.408;2023-12-14T03:35:02;113.50;;;107.40;;
14013;SDS011;49110;52.584;13.408;2023-12-14T03:36:03;110.78;;;105.05;;
14013;SDS011;49110;52.584;13.408;2023-12-14T03:37:04;116.35;;;110.30;;
14013;SDS011;49110;52.584;13.408;2023-12-14T03:38:05;118.37;;;112.23;;
14013;SDS011;49110;52.584;13.408;2023-12-14T03:39:05;113.20;;;107.23;;
14013;SDS011;49110;52.584;13.408;2023-12-14T03:40:06;114.07;;;108.17;;
14013;SDS011;49110;52.584;13.408;2023-12-14T03:41:07;117.50;;;111.43;;
14013;SDS011;49110;52.584;13.408;2023-12-14T03:42:07;120.93;;;114.67;;
14013;SDS011;49110;52.584;13.408;2023-12-14T03:43:08;113.07;;;107.07;;
14013;SDS011;49110;52.584;13.408;2023-12-14T03:44:08;119.83;;;113.60;;
14013;SDS011;49110;52.584;13.408;2023-12-14T03:45:09;111.20;;;105.27;;
14013;SDS011;49110;52.584;13.408;2023-12-14T03:46:10;116.22;;;110.05;;
14013;SDS011;49110;52.584;13.408;2023-12-14T03:47:11;114.87;;;108.80;;
14013;SDS011;49110;52.584;13.408;2023-12-14T03:48:11;110.30;;;104.43;;
14013;SDS011;49110;52.584;13.408;2023-12-14T03:49:12;112.07;;;106.03;;
14013;SDS011;49110;52.584;13.408;2023-12-14T03:50:12;116.67;;;110.60;;
14013;SDS011;49110;52.584;13.408;2023-12-14T03:51:13;119.07;;;112.87;;
14013;SDS011;49110;52.584;13.408;2023-12-14T03:52:13;116.43;;;110.20;;
14013;SDS011;49110;52.584;13.408;2023-12-14T03:53:13;108.20;;;102.53;;
14013;SDS011;49110;52.584;13.408;2023-12-14T03:54:14;117.57;;;111.27;;
14013;SDS011;49110;52.584;13.408;2023-12-14T03:55:14;115.90;;;109.87;;
14013;SDS011;49110;52.584;13.408;2023-12-14T03:56:15;116.70;;;110.67;;
14013;SDS011;49110;52.584;13.408;2023-12-14T03:57:16;115.10;;;109.07;;
14013;SDS011;49110;52.584;13.408;2023-12-14T03:58:16;116.97;;;110.90;;
14013;SDS011;49110;52.584;13.408;2023-12-14T03:59:17;103.00;;;97.60;;
14013;SDS011;49110;52.584;13.408;2023-12-14T04:00:17;111.67;;;105.67;;
14013;SDS011;49110;52.584;13.408;2023-12-14T04:01:18;112.93;;;106.90;;
14013;SDS011;49110;52.584;13.408;2023-12-14T04:02:19;110.90;;;105.03;;
14013;SDS011;49110;52.584;13.408;2023-12-14T04:03:20;106.53;;;101.00;;
14013;SDS011;49110;52.584;13.408;2023-12-14T04:04:20;107.50;;;101.73;;
14013;SDS011;49110;52.584;13.408;2023-12-14T04:05:21;107.23;;;101.60;;
14013;SDS011;49110;52.584;13.408;2023-12-14T04:06:21;105.10;;;99.47;;
14013;SDS011;49110;52.584;13.408;2023-12-14T04:07:24;115.33;;;109.07;;
14013;SDS011;49110;52.584;13.408;2023-12-14T04:08:25;101.10;;;95.72;;
14013;SDS011;49110;52.584;13.408;2023-12-14T04:09:25;106.80;;;101.03;;
14013;SDS011;49110;52.584;13.408;2023-12-14T04:10:26;110.30;;;104.27;;
14013;SDS011;49110;52.584;13.408;2023-12-14T04:11:26;112.83;;;106.67;;
14013;SDS011;49110;52.584;13.408;2023-12-14T04:12:27;114.93;;;108.73;;
14013;SDS011;49110;52.584;13.408;2023-12-14T04:13:28;115.03;;;108.85;;
14013;SDS011;49110;52.584;13.408;2023-12-14T04:14:28;121.87;;;115.10;;
14013;SDS011;49110;52.584;13.408;2023-12-14T04:15:29;115.50;;;109.30;;
14013;SDS011;49110;52.584;13.408;2023-12-14T04:16:29;112.03;;;106.07;;
14013;SDS011;49110;52.584;13.408;2023-12-14T04:17:30;111.43;;;105.37;;
14013;SDS011;49110;52.584;13.408;2023-12-14T04:18:31;111.45;;;105.28;;
14013;SDS011;49110;52.584;13.408;2023-12-14T04:19:32;117.60;;;111.43;;
14013;SDS011;49110;52.584;13.408;2023-12-14T04:20:32;105.03;;;99.30;;
14013;SDS011;49110;52.584;13.408;2023-12-14T04:21:33;107.93;;;102.15;;
14013;SDS011;49110;52.584;13.408;2023-12-14T04:22:34;110.10;;;104.20;;
14013;SDS011;49110;52.584;13.408;2023-12-14T04:23:34;110.80;;;104.93;;
14013;SDS011;49110;52.584;13.408;2023-12-14T04:24:35;107.20;;;101.33;;
14013;SDS011;49110;52.584;13.408;2023-12-14T04:25:35;111.47;;;105.50;;
14013;SDS011;49110;52.584;13.408;2023-12-14T04:26:36;111.73;;;105.70;;
14013;SDS011;49110;52.584;13.408;2023-12-14T04:27:39;113.67;;;107.60;;
14013;SDS011;49110;52.584;13.408;2023-12-14T04:28:40;117.63;;;111.43;;
14013;SDS011;49110;52.584;13.408;2023-12-14T04:29:43;110.70;;;104.88;;
14013;SDS011;49110;52.584;13.408;2023-12-14T04:30:44;102.07;;;96.67;;
14013;SDS011;49110;52.584;13.408;2023-12-14T04:31:44;106.73;;;101.03;;
14013;SDS011;49110;52.584;13.408;2023-12-14T04:32:45;103.33;;;97.63;;
14013;SDS011;49110;52.584;13.408;2023-12-14T04:33:47;112.07;;;106.15;;
14013;SDS011;49110;52.584;13.408;2023-12-14T04:34:48;107.43;;;101.77;;
14013;SDS011;49110;52.584;13.408;2023-12-14T04:35:48;109.00;;;103.10;;
14013;SDS011;49110;52.584;13.408;2023-12-14T04:36:49;105.87;;;100.17;;
14013;SDS011;49110;52.584;13.408;2023-12-14T04:37:50;107.25;;;101.50;;
14013;SDS011;49110;52.584;13.408;2023-12-14T04:38:51;108.40;;;102.30;;
14013;SDS011;49110;52.584;13.408;2023-12-14T04:39:51;115.23;;;109.00;;
14013;SDS011;49110;52.584;13.408;2023-12-14T04:40:52;112.87;;;106.60;;
14013;SDS011;49110;52.584;13.408;2023-12-14T04:41:52;118.63;;;112.13;;
14013;SDS011;49110;52.584;13.408;2023-12-14T04:42:53;119.60;;;113.25;;
14013;SDS011;49110;52.584;13.408;2023-12-14T04:43:54;118.77;;;112.20;;
14013;SDS011;49110;52.584;13.408;2023-12-14T04:44:54;116.13;;;109.63;;
14013;SDS011;49110;52.584;13.408;2023-12-14T04:45:55;109.33;;;103.23;;
14013;SDS011;49110;52.584;13.408;2023-12-14T04:46:55;118.60;;;112.03;;
14013;SDS011;49110;52.584;13.408;2023-12-14T04:47:55;113.63;;;107.37;;
14013;SDS011;49110;52.584;13.408;2023-12-14T04:48:56;110.43;;;104.27;;
14013;SDS011;49110;52.584;13.408;2023-12-14T04:49:56;108.23;;;102.23;;
14013;SDS011;49110;52.584;13.408;2023-12-14T04:50:57;114.27;;;108.03;;
14013;SDS011;49110;52.584;13.408;2023-12-14T04:51:57;107.40;;;101.63;;
14013;SDS011;49110;52.584;13.408;2023-12-14T04:52:58;106.37;;;100.67;;
14013;SDS011;49110;52.584;13.408;2023-12-14T04:53:58;112.63;;;106.50;;
14013;SDS011;49110;52.584;13.408;2023-12-14T04:54:59;111.47;;;105.47;;
14013;SDS011;49110;52.584;13.408;2023-12-14T04:55:59;110.43;;;104.40;;
14013;SDS011;49110;52.584;13.408;2023-12-14T04:57:00;117.90;;;111.40;;
14013;SDS011;49110;52.584;13.408;2023-12-14T04:58:00;119.10;;;112.60;;
14013;SDS011;49110;52.584;13.408;2023-12-14T04:59:01;118.03;;;111.70;;
14013;SDS011;49110;52.584;13.408;2023-12-14T05:00:01;112.07;;;105.93;;
14013;SDS011;49110;52.584;13.408;2023-12-14T05:01:03;124.38;;;117.47;;
14013;SDS011;49110;52.584;13.408;2023-12-14T05:02:04;119.90;;;113.40;;
14013;SDS011;49110;52.584;13.408;2023-12-14T05:03:04;128.23;;;121.37;;
14013;SDS011;49110;52.584;13.408;2023-12-14T05:04:05;123.13;;;116.38;;
14013;SDS011;49110;52.584;13.408;2023-12-14T05:05:06;121.07;;;114.30;;
14013;SDS011;49110;52.584;13.408;2023-12-14T05:06:07;119.33;;;112.97;;
14013;SDS011;49110;52.584;13.408;2023-12-14T05:07:07;119.70;;;113.20;;
14013;SDS011;49110;52.584;13.408;2023-12-14T05:08:07;111.50;;;105.50;;
14013;SDS011;49110;52.584;13.408;2023-12-14T05:09:08;121.63;;;114.93;;
14013;SDS011;49110;52.584;13.408;2023-12-14T05:10:09;123.03;;;116.40;;
14013;SDS011;49110;52.584;13.408;2023-12-14T05:11:12;123.25;;;116.60;;
14013;SDS011;49110;52.584;13.408;2023-12-14T05:12:13;123.00;;;116.18;;
14013;SDS011;49110;52.584;13.408;2023-12-14T05:13:14;117.97;;;111.57;;
14013;SDS011;49110;52.584;13.408;2023-12-14T05:14:14;123.63;;;117.03;;
14013;SDS011;49110;52.584;13.408;2023-12-14T05:15:15;111.27;;;105.40;;
14013;SDS011;49110;52.584;13.408;2023-12-14T05:16:16;115.10;;;109.03;;
14013;SDS011;49110;52.584;13.408;2023-12-14T05:17:16;109.43;;;103.67;;
14013;SDS011;49110;52.584;13.408;2023-12-14T05:18:20;110.73;;;104.70;;
14013;SDS011;49110;52.584;13.408;2023-12-14T05:19:20;115.38;;;109.28;;
14013;SDS011;49110;52.584;13.408;2023-12-14T05:20:21;108.83;;;103.23;;
14013;SDS011;49110;52.584;13.408;2023-12-14T05:21:21;105.33;;;99.83;;
14013;SDS011;49110;52.584;13.408;2023-12-14T05:22:21;109.73;;;103.90;;
14013;SDS011;49110;52.584;13.408;2023-12-14T05:23:22;118.93;;;112.67;;
14013;SDS011;49110;52.584;13.408;2023-12-14T05:24:23;112.40;;;106.47;;
14013;SDS011;49110;52.584;13.408;2023-12-14T05:25:24;106.03;;;100.50;;
14013;SDS011;49110;52.584;13.408;2023-12-14T05:26:25;121.75;;;115.18;;
14013;SDS011;49110;52.584;13.408;2023-12-14T05:27:25;121.00;;;114.57;;
14013;SDS011;49110;52.584;13.408;2023-12-14T05:28:26;122.40;;;115.97;;
14013;SDS011;49110;52.584;13.408;2023-12-14T05:29:26;114.37;;;108.37;;
14013;SDS011;49110;52.584;13.408;2023-12-14T05:30:27;112.10;;;106.30;;
14013;SDS011;49110;52.584;13.408;2023-12-14T05:31:27;112.33;;;106.37;;
14013;SDS011;49110;52.584;13.408;2023-12-14T05:32:28;110.53;;;104.67;;
14013;SDS011;49110;52.584;13.408;2023-12-14T05:33:28;108.10;;;102.40;;
14013;SDS011;49110;52.584;13.408;2023-12-14T05:34:29;103.97;;;98.53;;
14013;SDS011;49110;52.584;13.408;2023-12-14T05:35:29;106.23;;;100.83;;
14013;SDS011;49110;52.584;13.408;2023-12-14T05:36:30;100.10;;;94.97;;
14013;SDS011;49110;52.584;13.408;2023-12-14T05:37:30;102.37;;;97.07;;
14013;SDS011;49110;52.584;13.408;2023-12-14T05:38:31;98.00;;;92.90;;
14013;SDS011;49110;52.584;13.408;2023-12-14T05:39:32;101.23;;;95.97;;
14013;SDS011;49110;52.584;13.408;2023-12-14T05:40:32;91.27;;;86.43;;
14013;SDS011;49110;52.584;13.408;2023-12-14T05:41:33;91.73;;;86.97;;